sensor_id;sensor_type;location;lat;lon;timestamp;pressure;altitude;pressure_sealevel;temperature;humidity
70930;BME280;58588;48.102;19.682;2023-05-09T00:01:53;100312.81;;;4.79;100.00
70930;BME280;58588;48.102;19.682;2023-05-09T00:04:55;100312.38;;;4.74;100.00
70930;BME280;58588;48.102;19.682;2023-05-09T00:07:57;100309.19;;;4.80;100.00
70930;BME280;58588;48.102;19.682;2023-05-09T00:11:00;100309.09;;;4.71;100.00
70930;BME280;58588;48.102;19.682;2023-05-09T00:14:02;100310.88;;;4.49;100.00
70930;BME280;58588;48.102;19.682;2023-05-09T00:17:06;100310.34;;;4.35;100.00
70930;BME280;58588;48.102;19.682;2023-05-09T00:20:09;100298.22;;;4.19;100.00
70930;BME280;58588;48.102;19.682;2023-05-09T00:23:12;100298.19;;;4.30;100.00
70930;BME280;58588;48.102;19.682;2023-05-09T00:26:15;100299.94;;;4.20;100.00
70930;BME280;58588;48.102;19.682;2023-05-09T00:29:17;100298.97;;;4.21;100.00
70930;BME280;58588;48.102;19.682;2023-05-09T00:32:20;100298.59;;;4.26;100.00
70930;BME280;58588;48.102;19.682;2023-05-09T00:35:23;100292.66;;;4.22;100.00
70930;BME280;58588;48.102;19.682;2023-05-09T00:38:25;100288.16;;;4.23;100.00
70930;BME280;58588;48.102;19.682;2023-05-09T00:41:27;100293.63;;;4.21;100.00
70930;BME280;58588;48.102;19.682;2023-05-09T00:44:29;100287.72;;;4.07;100.00
70930;BME280;58588;48.102;19.682;2023-05-09T00:47:33;100297.31;;;3.98;100.00
70930;BME280;58588;48.102;19.682;2023-05-09T00:50:35;100299.38;;;3.94;100.00
70930;BME280;58588;48.102;19.682;2023-05-09T00:53:37;100293.38;;;4.13;100.00
70930;BME280;58588;48.102;19.682;2023-05-09T00:56:40;100294.63;;;4.09;100.00
70930;BME280;58588;48.102;19.682;2023-05-09T00:59:42;100294.03;;;4.06;100.00
70930;BME280;58588;48.102;19.682;2023-05-09T01:02:47;100289.72;;;4.25;100.00
70930;BME280;58588;48.102;19.682;2023-05-09T01:05:56;100290.44;;;4.39;100.00
70930;BME280;58588;48.102;19.682;2023-05-09T01:09:04;100295.38;;;4.43;100.00
70930;BME280;58588;48.102;19.682;2023-05-09T01:12:13;100286.84;;;4.49;100.00
70930;BME280;58588;48.102;19.682;2023-05-09T01:15:21;100292.94;;;4.51;100.00
70930;BME280;58588;48.102;19.682;2023-05-09T01:18:30;100286.00;;;4.49;100.00
70930;BME280;58588;48.102;19.682;2023-05-09T01:21:34;100286.84;;;4.49;100.00
70930;BME280;58588;48.102;19.682;2023-05-09T01:24:54;100282.31;;;4.29;100.00
70930;BME280;58588;48.102;19.682;2023-05-09T01:28:11;100278.59;;;4.20;100.00
70930;BME280;58588;48.102;19.682;2023-05-09T01:31:16;100285.50;;;4.23;100.00
70930;BME280;58588;48.102;19.682;2023-05-09T01:34:20;100280.03;;;4.24;100.00
70930;BME280;58588;48.102;19.682;2023-05-09T01:37:28;100280.53;;;4.18;100.00
70930;BME280;58588;48.102;19.682;2023-05-09T01:40:32;100279.94;;;4.15;100.00
70930;BME280;58588;48.102;19.682;2023-05-09T01:43:36;100266.81;;;4.23;100.00
70930;BME280;58588;48.102;19.682;2023-05-09T01:46:41;100268.63;;;4.22;100.00
70930;BME280;58588;48.102;19.682;2023-05-09T01:49:45;100266.31;;;4.29;100.00
70930;BME280;58588;48.102;19.682;2023-05-09T01:52:51;100275.81;;;4.22;100.00
70930;BME280;58588;48.102;19.682;2023-05-09T01:55:55;100264.19;;;4.12;100.00
70930;BME280;58588;48.102;19.682;2023-05-09T01:58:59;100264.03;;;4.13;100.00
70930;BME280;58588;48.102;19.682;2023-05-09T02:02:05;100262.50;;;3.99;100.00
70930;BME280;58588;48.102;19.682;2023-05-09T02:05:09;100265.47;;;3.85;100.00
70930;BME280;58588;48.102;19.682;2023-05-09T02:08:13;100269.13;;;3.73;100.00
70930;BME280;58588;48.102;19.682;2023-05-09T02:11:15;100265.63;;;3.50;100.00
70930;BME280;58588;48.102;19.682;2023-05-09T02:14:17;100270.09;;;3.49;100.00
70930;BME280;58588;48.102;19.682;2023-05-09T02:17:21;100273.00;;;3.46;100.00
70930;BME280;58588;48.102;19.682;2023-05-09T02:20:23;100278.94;;;3.50;100.00
70930;BME280;58588;48.102;19.682;2023-05-09T02:23:25;100263.19;;;3.58;100.00
70930;BME280;58588;48.102;19.682;2023-05-09T02:26:27;100264.16;;;3.57;100.00
70930;BME280;58588;48.102;19.682;2023-05-09T02:29:33;100269.34;;;3.47;100.00
70930;BME280;58588;48.102;19.682;2023-05-09T02:32:42;100272.28;;;3.44;100.00
70930;BME280;58588;48.102;19.682;2023-05-09T02:35:46;100258.94;;;3.44;100.00
70930;BME280;58588;48.102;19.682;2023-05-09T02:38:49;100248.41;;;3.43;100.00
70930;BME280;58588;48.102;19.682;2023-05-09T02:41:51;100261.84;;;3.41;100.00
70930;BME280;58588;48.102;19.682;2023-05-09T02:44:53;100259.06;;;3.32;100.00
70930;BME280;58588;48.102;19.682;2023-05-09T02:47:57;100259.06;;;3.20;100.00
70930;BME280;58588;48.102;19.682;2023-05-09T02:50:59;100255.53;;;3.09;100.00
70930;BME280;58588;48.102;19.682;2023-05-09T02:54:01;100254.81;;;2.95;100.00
70930;BME280;58588;48.102;19.682;2023-05-09T02:57:03;100256.81;;;2.81;100.00
70930;BME280;58588;48.102;19.682;2023-05-09T03:00:07;100266.03;;;2.77;100.00
70930;BME280;58588;48.102;19.682;2023-05-09T03:03:10;100269.38;;;2.67;100.00
70930;BME280;58588;48.102;19.682;2023-05-09T03:06:13;100256.78;;;2.69;100.00
70930;BME280;58588;48.102;19.682;2023-05-09T03:09:14;100266.19;;;2.62;100.00
70930;BME280;58588;48.102;19.682;2023-05-09T03:12:17;100262.69;;;2.62;100.00
70930;BME280;58588;48.102;19.682;2023-05-09T03:15:19;100270.56;;;2.63;100.00
70930;BME280;58588;48.102;19.682;2023-05-09T03:18:23;100257.25;;;2.63;100.00
70930;BME280;58588;48.102;19.682;2023-05-09T03:21:25;100265.19;;;2.76;100.00
70930;BME280;58588;48.102;19.682;2023-05-09T03:24:27;100266.63;;;2.80;100.00
70930;BME280;58588;48.102;19.682;2023-05-09T03:27:29;100266.50;;;2.82;100.00
70930;BME280;58588;48.102;19.682;2023-05-09T03:30:31;100262.38;;;2.78;100.00
70930;BME280;58588;48.102;19.682;2023-05-09T03:33:34;100262.47;;;2.65;100.00
70930;BME280;58588;48.102;19.682;2023-05-09T03:36:36;100264.50;;;2.61;100.00
70930;BME280;58588;48.102;19.682;2023-05-09T03:39:39;100265.31;;;2.51;100.00
70930;BME280;58588;48.102;19.682;2023-05-09T03:42:41;100267.81;;;2.65;100.00
70930;BME280;58588;48.102;19.682;2023-05-09T03:45:44;100273.22;;;2.63;100.00
70930;BME280;58588;48.102;19.682;2023-05-09T03:48:47;100269.63;;;2.64;100.00
70930;BME280;58588;48.102;19.682;2023-05-09T03:51:49;100270.97;;;2.70;100.00
70930;BME280;58588;48.102;19.682;2023-05-09T03:54:51;100279.88;;;2.69;100.00
70930;BME280;58588;48.102;19.682;2023-05-09T03:57:53;100282.94;;;2.76;100.00
70930;BME280;58588;48.102;19.682;2023-05-09T04:00:55;100281.19;;;2.63;100.00
70930;BME280;58588;48.102;19.682;2023-05-09T04:03:59;100277.81;;;2.61;100.00
70930;BME280;58588;48.102;19.682;2023-05-09T04:07:01;100283.53;;;2.68;100.00
70930;BME280;58588;48.102;19.682;2023-05-09T04:10:04;100283.19;;;2.73;100.00
70930;BME280;58588;48.102;19.682;2023-05-09T04:13:06;100278.13;;;2.81;100.00
70930;BME280;58588;48.102;19.682;2023-05-09T04:16:08;100277.91;;;2.84;100.00
70930;BME280;58588;48.102;19.682;2023-05-09T04:19:11;100275.00;;;2.98;100.00
70930;BME280;58588;48.102;19.682;2023-05-09T04:22:13;100290.75;;;3.01;100.00
70930;BME280;58588;48.102;19.682;2023-05-09T04:25:15;100280.13;;;3.12;100.00
70930;BME280;58588;48.102;19.682;2023-05-09T04:28:19;100283.66;;;3.13;100.00
70930;BME280;58588;48.102;19.682;2023-05-09T04:31:21;100287.75;;;3.28;100.00
70930;BME280;58588;48.102;19.682;2023-05-09T04:34:25;100293.22;;;3.38;100.00
70930;BME280;58588;48.102;19.682;2023-05-09T04:37:27;100292.25;;;3.39;100.00
70930;BME280;58588;48.102;19.682;2023-05-09T04:40:30;100288.75;;;3.61;100.00
70930;BME280;58588;48.102;19.682;2023-05-09T04:43:33;100291.28;;;3.73;100.00
70930;BME280;58588;48.102;19.682;2023-05-09T04:46:35;100276.22;;;3.95;100.00
70930;BME280;58588;48.102;19.682;2023-05-09T04:49:39;100280.66;;;4.17;100.00
70930;BME280;58588;48.102;19.682;2023-05-09T04:52:41;100284.34;;;4.37;100.00
70930;BME280;58588;48.102;19.682;2023-05-09T04:55:43;100282.25;;;4.51;100.00
70930;BME280;58588;48.102;19.682;2023-05-09T04:58:45;100280.38;;;4.63;100.00
70930;BME280;58588;48.102;19.682;2023-05-09T05:01:47;100275.13;;;4.94;100.00
70930;BME280;58588;48.102;19.682;2023-05-09T05:04:50;100282.34;;;5.03;100.00
70930;BME280;58588;48.102;19.682;2023-05-09T05:07:52;100276.38;;;5.20;100.00
70930;BME280;58588;48.102;19.682;2023-05-09T05:10:55;100268.81;;;5.46;100.00
70930;BME280;58588;48.102;19.682;2023-05-09T05:13:57;100271.41;;;5.67;100.00
70930;BME280;58588;48.102;19.682;2023-05-09T05:16:59;100272.19;;;5.88;100.00
70930;BME280;58588;48.102;19.682;2023-05-09T05:20:03;100270.84;;;6.04;100.00
70930;BME280;58588;48.102;19.682;2023-05-09T05:23:06;100272.00;;;6.21;100.00
70930;BME280;58588;48.102;19.682;2023-05-09T05:26:08;100273.84;;;6.39;100.00
70930;BME280;58588;48.102;19.682;2023-05-09T05:29:10;100274.13;;;6.65;100.00
70930;BME280;58588;48.102;19.682;2023-05-09T05:32:12;100266.94;;;6.85;100.00
70930;BME280;58588;48.102;19.682;2023-05-09T05:35:15;100269.69;;;7.13;100.00
70930;BME280;58588;48.102;19.682;2023-05-09T05:38:17;100273.22;;;7.13;100.00
70930;BME280;58588;48.102;19.682;2023-05-09T05:41:19;100274.13;;;7.41;100.00
70930;BME280;58588;48.102;19.682;2023-05-09T05:44:21;100272.34;;;7.69;100.00
70930;BME280;58588;48.102;19.682;2023-05-09T05:47:23;100256.81;;;7.91;100.00
70930;BME280;58588;48.102;19.682;2023-05-09T05:50:27;100257.34;;;8.04;100.00
70930;BME280;58588;48.102;19.682;2023-05-09T05:53:29;100255.97;;;8.18;100.00
70930;BME280;58588;48.102;19.682;2023-05-09T05:56:31;100253.16;;;8.73;100.00
70930;BME280;58588;48.102;19.682;2023-05-09T05:59:33;100261.06;;;9.18;100.00
70930;BME280;58588;48.102;19.682;2023-05-09T06:02:35;100257.47;;;9.09;100.00
70930;BME280;58588;48.102;19.682;2023-05-09T06:05:40;100256.50;;;9.45;97.86
70930;BME280;58588;48.102;19.682;2023-05-09T06:08:42;100257.66;;;9.68;97.97
70930;BME280;58588;48.102;19.682;2023-05-09T06:11:45;100259.03;;;9.80;96.43
70930;BME280;58588;48.102;19.682;2023-05-09T06:14:47;100247.78;;;10.27;91.36
70930;BME280;58588;48.102;19.682;2023-05-09T06:17:49;100250.81;;;10.32;87.77
70930;BME280;58588;48.102;19.682;2023-05-09T06:20:52;100252.00;;;10.46;86.59
70930;BME280;58588;48.102;19.682;2023-05-09T06:23:54;100256.44;;;10.80;86.23
70930;BME280;58588;48.102;19.682;2023-05-09T06:26:57;100250.53;;;10.92;82.22
70930;BME280;58588;48.102;19.682;2023-05-09T06:29:59;100248.63;;;11.09;81.70
70930;BME280;58588;48.102;19.682;2023-05-09T06:33:01;100252.19;;;11.18;83.70
70930;BME280;58588;48.102;19.682;2023-05-09T06:36:05;100247.06;;;11.39;80.93
70930;BME280;58588;48.102;19.682;2023-05-09T06:39:07;100249.06;;;11.45;76.35
70930;BME280;58588;48.102;19.682;2023-05-09T06:42:09;100243.25;;;11.73;78.17
70930;BME280;58588;48.102;19.682;2023-05-09T06:45:11;100244.00;;;12.06;74.04
70930;BME280;58588;48.102;19.682;2023-05-09T06:48:13;100248.38;;;12.07;75.49
70930;BME280;58588;48.102;19.682;2023-05-09T06:51:16;100243.13;;;12.37;71.15
70930;BME280;58588;48.102;19.682;2023-05-09T06:54:18;100244.94;;;12.44;69.46
70930;BME280;58588;48.102;19.682;2023-05-09T06:57:20;100245.34;;;12.56;70.33
70930;BME280;58588;48.102;19.682;2023-05-09T07:00:22;100245.66;;;12.61;70.43
70930;BME280;58588;48.102;19.682;2023-05-09T07:03:24;100242.22;;;13.05;69.62
70930;BME280;58588;48.102;19.682;2023-05-09T07:06:28;100243.13;;;13.20;68.58
70930;BME280;58588;48.102;19.682;2023-05-09T07:09:30;100241.75;;;13.39;68.47
70930;BME280;58588;48.102;19.682;2023-05-09T07:12:32;100238.06;;;13.17;65.84
70930;BME280;58588;48.102;19.682;2023-05-09T07:15:34;100236.06;;;13.34;68.33
70930;BME280;58588;48.102;19.682;2023-05-09T07:18:36;100221.38;;;13.43;63.41
70930;BME280;58588;48.102;19.682;2023-05-09T07:21:39;100225.31;;;13.41;63.05
70930;BME280;58588;48.102;19.682;2023-05-09T07:24:41;100224.47;;;13.40;63.06
70930;BME280;58588;48.102;19.682;2023-05-09T07:27:45;100220.75;;;13.71;63.42
70930;BME280;58588;48.102;19.682;2023-05-09T07:30:47;100228.88;;;13.85;64.55
70930;BME280;58588;48.102;19.682;2023-05-09T07:33:49;100225.44;;;13.62;64.01
70930;BME280;58588;48.102;19.682;2023-05-09T07:36:53;100213.19;;;14.17;63.03
70930;BME280;58588;48.102;19.682;2023-05-09T07:39:55;100207.34;;;14.20;62.07
70930;BME280;58588;48.102;19.682;2023-05-09T07:42:57;100210.66;;;14.15;61.93
70930;BME280;58588;48.102;19.682;2023-05-09T07:45:59;100211.56;;;14.44;61.58
70930;BME280;58588;48.102;19.682;2023-05-09T07:49:01;100206.78;;;14.25;61.29
70930;BME280;58588;48.102;19.682;2023-05-09T07:52:05;100206.16;;;14.23;60.38
70930;BME280;58588;48.102;19.682;2023-05-09T07:55:07;100195.84;;;14.54;61.48
70930;BME280;58588;48.102;19.682;2023-05-09T07:58:11;100187.50;;;14.77;59.71
70930;BME280;58588;48.102;19.682;2023-05-09T08:01:13;100192.94;;;14.77;58.84
70930;BME280;58588;48.102;19.682;2023-05-09T08:04:16;100198.47;;;14.90;59.21
70930;BME280;58588;48.102;19.682;2023-05-09T08:07:19;100197.97;;;15.08;59.70
70930;BME280;58588;48.102;19.682;2023-05-09T08:10:21;100187.75;;;15.10;58.01
70930;BME280;58588;48.102;19.682;2023-05-09T08:13:24;100189.56;;;15.31;59.01
70930;BME280;58588;48.102;19.682;2023-05-09T08:16:26;100177.34;;;15.90;58.59
70930;BME280;58588;48.102;19.682;2023-05-09T08:19:28;100173.19;;;16.07;56.11
70930;BME280;58588;48.102;19.682;2023-05-09T08:22:31;100175.28;;;15.98;54.84
70930;BME280;58588;48.102;19.682;2023-05-09T08:25:33;100164.66;;;16.23;57.10
70930;BME280;58588;48.102;19.682;2023-05-09T08:28:35;100166.22;;;16.92;55.80
70930;BME280;58588;48.102;19.682;2023-05-09T08:31:37;100165.59;;;17.03;54.24
70930;BME280;58588;48.102;19.682;2023-05-09T08:34:40;100166.13;;;17.38;53.87
70930;BME280;58588;48.102;19.682;2023-05-09T08:37:43;100167.13;;;17.57;55.14
70930;BME280;58588;48.102;19.682;2023-05-09T08:40:47;100162.41;;;17.13;52.87
70930;BME280;58588;48.102;19.682;2023-05-09T08:43:49;100170.88;;;17.76;53.80
70930;BME280;58588;48.102;19.682;2023-05-09T08:46:55;100167.09;;;18.15;53.09
70930;BME280;58588;48.102;19.682;2023-05-09T08:49:59;100162.28;;;17.66;52.93
70930;BME280;58588;48.102;19.682;2023-05-09T08:53:04;100163.44;;;18.28;54.28
70930;BME280;58588;48.102;19.682;2023-05-09T08:56:06;100170.16;;;17.29;49.35
70930;BME280;58588;48.102;19.682;2023-05-09T08:59:08;100156.63;;;18.12;52.56
70930;BME280;58588;48.102;19.682;2023-05-09T09:02:11;100151.97;;;17.75;48.95
70930;BME280;58588;48.102;19.682;2023-05-09T09:05:14;100144.03;;;17.60;48.83
70930;BME280;58588;48.102;19.682;2023-05-09T09:08:18;100139.75;;;17.90;48.62
70930;BME280;58588;48.102;19.682;2023-05-09T09:11:20;100138.59;;;17.60;48.27
70930;BME280;58588;48.102;19.682;2023-05-09T09:14:23;100130.88;;;17.44;48.36
70930;BME280;58588;48.102;19.682;2023-05-09T09:17:27;100133.25;;;18.23;50.69
70930;BME280;58588;48.102;19.682;2023-05-09T09:20:32;100144.41;;;18.53;45.46
70930;BME280;58588;48.102;19.682;2023-05-09T09:23:38;100133.41;;;17.38;46.45
70930;BME280;58588;48.102;19.682;2023-05-09T09:26:48;100136.84;;;18.24;46.68
70930;BME280;58588;48.102;19.682;2023-05-09T09:29:51;100141.38;;;19.11;45.70
70930;BME280;58588;48.102;19.682;2023-05-09T09:32:53;100151.69;;;19.09;46.35
70930;BME280;58588;48.102;19.682;2023-05-09T09:35:55;100126.94;;;18.29;46.36
70930;BME280;58588;48.102;19.682;2023-05-09T09:39:01;100116.91;;;17.33;46.13
70930;BME280;58588;48.102;19.682;2023-05-09T09:42:11;100130.09;;;18.51;47.46
70930;BME280;58588;48.102;19.682;2023-05-09T09:45:15;100126.84;;;18.92;47.72
70930;BME280;58588;48.102;19.682;2023-05-09T09:48:17;100121.09;;;19.19;45.92
70930;BME280;58588;48.102;19.682;2023-05-09T09:51:19;100123.03;;;20.03;42.80
70930;BME280;58588;48.102;19.682;2023-05-09T09:54:25;100120.97;;;19.69;43.90
70930;BME280;58588;48.102;19.682;2023-05-09T09:57:33;100111.84;;;20.05;44.83
70930;BME280;58588;48.102;19.682;2023-05-09T10:00:36;100112.13;;;20.92;43.84
70930;BME280;58588;48.102;19.682;2023-05-09T10:03:40;100126.91;;;21.03;43.52
70930;BME280;58588;48.102;19.682;2023-05-09T10:06:51;100111.19;;;21.33;42.76
70930;BME280;58588;48.102;19.682;2023-05-09T10:09:55;100104.66;;;20.76;42.73
70930;BME280;58588;48.102;19.682;2023-05-09T10:13:01;100103.91;;;20.15;42.79
70930;BME280;58588;48.102;19.682;2023-05-09T10:16:04;100120.00;;;18.83;42.57
70930;BME280;58588;48.102;19.682;2023-05-09T10:19:07;100091.25;;;19.36;46.51
70930;BME280;58588;48.102;19.682;2023-05-09T10:22:13;100082.25;;;20.25;42.53
70930;BME280;58588;48.102;19.682;2023-05-09T10:25:38;100093.69;;;20.64;41.88
70930;BME280;58588;48.102;19.682;2023-05-09T10:28:41;100086.50;;;20.87;40.59
70930;BME280;58588;48.102;19.682;2023-05-09T10:31:45;100092.63;;;20.23;41.08
70930;BME280;58588;48.102;19.682;2023-05-09T10:34:52;100083.03;;;20.02;39.77
70930;BME280;58588;48.102;19.682;2023-05-09T10:37:55;100079.84;;;19.57;41.66
70930;BME280;58588;48.102;19.682;2023-05-09T10:40:59;100082.97;;;19.06;44.48
70930;BME280;58588;48.102;19.682;2023-05-09T10:44:02;100091.66;;;19.21;42.50
70930;BME280;58588;48.102;19.682;2023-05-09T10:47:04;100095.28;;;18.96;43.48
70930;BME280;58588;48.102;19.682;2023-05-09T10:50:09;100086.09;;;19.28;42.84
70930;BME280;58588;48.102;19.682;2023-05-09T10:53:13;100088.06;;;20.59;43.24
70930;BME280;58588;48.102;19.682;2023-05-09T10:56:25;100082.53;;;19.94;40.56
70930;BME280;58588;48.102;19.682;2023-05-09T10:59:36;100090.72;;;18.90;42.14
70930;BME280;58588;48.102;19.682;2023-05-09T11:02:39;100092.47;;;19.40;43.98
70930;BME280;58588;48.102;19.682;2023-05-09T11:05:41;100075.31;;;19.33;42.65
70930;BME280;58588;48.102;19.682;2023-05-09T11:08:46;100071.22;;;19.23;43.61
70930;BME280;58588;48.102;19.682;2023-05-09T11:11:54;100075.53;;;19.68;42.54
70930;BME280;58588;48.102;19.682;2023-05-09T11:15:03;100071.25;;;19.72;42.68
70930;BME280;58588;48.102;19.682;2023-05-09T11:18:06;100070.44;;;19.53;42.88
70930;BME280;58588;48.102;19.682;2023-05-09T11:21:10;100070.22;;;18.99;42.17
70930;BME280;58588;48.102;19.682;2023-05-09T11:24:16;100065.81;;;19.17;44.23
70930;BME280;58588;48.102;19.682;2023-05-09T11:27:21;100063.84;;;19.24;44.65
70930;BME280;58588;48.102;19.682;2023-05-09T11:30:34;100055.72;;;20.26;44.31
70930;BME280;58588;48.102;19.682;2023-05-09T11:33:37;100057.44;;;20.85;43.90
70930;BME280;58588;48.102;19.682;2023-05-09T11:36:43;100062.09;;;20.62;40.21
70930;BME280;58588;48.102;19.682;2023-05-09T11:39:58;100053.66;;;21.79;41.07
70930;BME280;58588;48.102;19.682;2023-05-09T11:43:02;100062.84;;;21.44;40.56
70930;BME280;58588;48.102;19.682;2023-05-09T11:46:04;100062.59;;;20.70;42.17
70930;BME280;58588;48.102;19.682;2023-05-09T11:49:07;100058.50;;;20.49;42.43
70930;BME280;58588;48.102;19.682;2023-05-09T11:52:09;100042.00;;;20.14;41.00
70930;BME280;58588;48.102;19.682;2023-05-09T11:55:13;100045.16;;;19.88;41.45
70930;BME280;58588;48.102;19.682;2023-05-09T11:58:17;100039.34;;;20.73;43.62
70930;BME280;58588;48.102;19.682;2023-05-09T12:01:21;100038.16;;;21.44;39.59
70930;BME280;58588;48.102;19.682;2023-05-09T12:04:23;100034.69;;;20.85;39.84
70930;BME280;58588;48.102;19.682;2023-05-09T12:07:26;100026.75;;;20.07;41.64
70930;BME280;58588;48.102;19.682;2023-05-09T12:10:28;100038.91;;;19.69;41.28
70930;BME280;58588;48.102;19.682;2023-05-09T12:13:31;100041.25;;;19.65;42.78
70930;BME280;58588;48.102;19.682;2023-05-09T12:16:34;100041.31;;;19.77;41.74
70930;BME280;58588;48.102;19.682;2023-05-09T12:19:45;100032.78;;;19.85;39.68
70930;BME280;58588;48.102;19.682;2023-05-09T12:22:51;100031.00;;;19.42;41.73
70930;BME280;58588;48.102;19.682;2023-05-09T12:25:55;100022.53;;;19.81;43.56
70930;BME280;58588;48.102;19.682;2023-05-09T12:28:59;100024.13;;;20.00;41.94
70930;BME280;58588;48.102;19.682;2023-05-09T12:32:01;100015.50;;;19.55;41.78
70930;BME280;58588;48.102;19.682;2023-05-09T12:35:03;100011.28;;;20.12;40.55
70930;BME280;58588;48.102;19.682;2023-05-09T12:38:06;100008.09;;;20.39;42.40
70930;BME280;58588;48.102;19.682;2023-05-09T12:41:09;100006.91;;;20.23;41.25
70930;BME280;58588;48.102;19.682;2023-05-09T12:44:19;100007.16;;;20.21;40.68
70930;BME280;58588;48.102;19.682;2023-05-09T12:47:25;100004.63;;;20.08;40.12
70930;BME280;58588;48.102;19.682;2023-05-09T12:50:31;100003.19;;;19.64;42.53
70930;BME280;58588;48.102;19.682;2023-05-09T12:53:37;100002.94;;;19.35;39.70
70930;BME280;58588;48.102;19.682;2023-05-09T12:56:40;99996.34;;;19.24;40.78
70930;BME280;58588;48.102;19.682;2023-05-09T12:59:43;99993.13;;;19.76;41.18
70930;BME280;58588;48.102;19.682;2023-05-09T13:02:47;99992.97;;;20.36;39.06
70930;BME280;58588;48.102;19.682;2023-05-09T13:05:54;99986.09;;;20.57;38.45
70930;BME280;58588;48.102;19.682;2023-05-09T13:08:57;99987.03;;;21.26;39.50
70930;BME280;58588;48.102;19.682;2023-05-09T13:12:01;99983.22;;;20.17;39.20
70930;BME280;58588;48.102;19.682;2023-05-09T13:15:07;99975.94;;;19.99;39.48
70930;BME280;58588;48.102;19.682;2023-05-09T13:18:10;99970.69;;;19.97;39.99
70930;BME280;58588;48.102;19.682;2023-05-09T13:21:12;99973.13;;;19.64;41.80
70930;BME280;58588;48.102;19.682;2023-05-09T13:24:14;99965.59;;;19.59;42.05
70930;BME280;58588;48.102;19.682;2023-05-09T13:27:16;99968.28;;;19.89;41.57
70930;BME280;58588;48.102;19.682;2023-05-09T13:30:20;99959.09;;;19.72;41.43
70930;BME280;58588;48.102;19.682;2023-05-09T13:33:22;99960.78;;;21.02;42.08
70930;BME280;58588;48.102;19.682;2023-05-09T13:36:24;99962.56;;;21.82;36.89
70930;BME280;58588;48.102;19.682;2023-05-09T13:39:26;99949.75;;;23.15;37.02
70930;BME280;58588;48.102;19.682;2023-05-09T13:42:28;99956.13;;;23.70;35.31
70930;BME280;58588;48.102;19.682;2023-05-09T13:45:32;99939.78;;;22.87;35.44
70930;BME280;58588;48.102;19.682;2023-05-09T13:48:34;99961.34;;;22.06;37.40
70930;BME280;58588;48.102;19.682;2023-05-09T13:51:36;99961.06;;;21.74;37.84
70930;BME280;58588;48.102;19.682;2023-05-09T13:54:38;99958.00;;;21.14;36.04
70930;BME280;58588;48.102;19.682;2023-05-09T13:57:41;99938.47;;;20.98;37.37
70930;BME280;58588;48.102;19.682;2023-05-09T14:00:45;99938.94;;;20.55;37.66
70930;BME280;58588;48.102;19.682;2023-05-09T14:03:47;99934.66;;;20.24;38.32
70930;BME280;58588;48.102;19.682;2023-05-09T14:06:49;99932.41;;;20.96;36.14
70930;BME280;58588;48.102;19.682;2023-05-09T14:09:52;99929.41;;;20.98;36.88
70930;BME280;58588;48.102;19.682;2023-05-09T14:12:54;99926.56;;;20.93;37.03
70930;BME280;58588;48.102;19.682;2023-05-09T14:15:57;99919.78;;;21.35;36.92
70930;BME280;58588;48.102;19.682;2023-05-09T14:18:59;99932.38;;;20.56;39.01
70930;BME280;58588;48.102;19.682;2023-05-09T14:22:02;99917.44;;;20.87;37.88
70930;BME280;58588;48.102;19.682;2023-05-09T14:25:05;99914.53;;;20.07;38.67
70930;BME280;58588;48.102;19.682;2023-05-09T14:28:07;99920.38;;;20.22;39.65
70930;BME280;58588;48.102;19.682;2023-05-09T14:31:11;99916.19;;;19.96;40.65
70930;BME280;58588;48.102;19.682;2023-05-09T14:34:13;99913.66;;;19.71;38.95
70930;BME280;58588;48.102;19.682;2023-05-09T14:37:15;99904.69;;;19.22;38.94
70930;BME280;58588;48.102;19.682;2023-05-09T14:40:17;99904.25;;;19.07;39.47
70930;BME280;58588;48.102;19.682;2023-05-09T14:43:19;99905.13;;;20.02;39.36
70930;BME280;58588;48.102;19.682;2023-05-09T14:46:23;99905.72;;;20.63;39.80
70930;BME280;58588;48.102;19.682;2023-05-09T14:49:25;99900.06;;;20.81;37.78
70930;BME280;58588;48.102;19.682;2023-05-09T14:52:27;99904.66;;;20.29;36.74
70930;BME280;58588;48.102;19.682;2023-05-09T14:55:30;99891.66;;;20.01;38.41
70930;BME280;58588;48.102;19.682;2023-05-09T14:58:32;99891.41;;;20.26;39.27
70930;BME280;58588;48.102;19.682;2023-05-09T15:01:36;99884.28;;;19.90;38.44
70930;BME280;58588;48.102;19.682;2023-05-09T15:04:38;99888.69;;;19.79;39.48
70930;BME280;58588;48.102;19.682;2023-05-09T15:07:43;99888.13;;;19.47;40.60
70930;BME280;58588;48.102;19.682;2023-05-09T15:10:45;99891.59;;;19.54;40.38
70930;BME280;58588;48.102;19.682;2023-05-09T15:13:47;99887.84;;;19.90;37.31
70930;BME280;58588;48.102;19.682;2023-05-09T15:16:51;99886.94;;;20.83;39.20
70930;BME280;58588;48.102;19.682;2023-05-09T15:19:54;99885.41;;;20.76;37.64
70930;BME280;58588;48.102;19.682;2023-05-09T15:22:56;99886.16;;;20.60;37.09
70930;BME280;58588;48.102;19.682;2023-05-09T15:25:58;99889.75;;;20.25;39.83
70930;BME280;58588;48.102;19.682;2023-05-09T15:29:00;99889.97;;;19.65;38.23
70930;BME280;58588;48.102;19.682;2023-05-09T15:32:04;99875.63;;;19.93;37.57
70930;BME280;58588;48.102;19.682;2023-05-09T15:35:07;99875.94;;;20.20;38.21
70930;BME280;58588;48.102;19.682;2023-05-09T15:38:09;99871.59;;;22.67;33.94
70930;BME280;58588;48.102;19.682;2023-05-09T15:41:12;99866.13;;;25.63;33.34
70930;BME280;58588;48.102;19.682;2023-05-09T15:44:15;99871.53;;;27.59;27.91
70930;BME280;58588;48.102;19.682;2023-05-09T15:47:19;99868.03;;;29.45;26.52
70930;BME280;58588;48.102;19.682;2023-05-09T15:50:21;99858.53;;;28.47;27.43